aviador You're here:

UTAM Decoded Metar

MARY in RUSSIA
Report Time2018-02-21 04:00:00
UTC Time2018-02-21 05:03:07
Flight Rules vfr VFR
Wind100° at 06 kt
W.Decomp.*RWY 18: 0.6 kt HW 6 kt LCW
W.Rank100° ranks 13
Current wind is below 100° avg. (6.4)
Visibility9999 m
Phenomena:N/A
Clouds:N/A
Expected CloudBase > 1,200 ft AGL from Temp-Dew spread
CeilingNone
Temp05°C (ISA -9)
Dew Point02°C (81% RH)
AAT1.2°C
QNH1025 hPa
Density Alt-610 ft
Elevation728 ft
Report Wrong Elevation
Raw Report
UTAM 210400Z 10006KT CAVOK 05/02 Q1025 NOSIG=

Extra information for UTAM:More info

Metar Taf Metar & Taf Last 4 Metars F.Rules Stats Wind Profile Meteogram Temp Stats Airport Information Weather charts Add Link Nearby VenuesMetar ALERT Operation Metar Decoded Social comments